Time;durP1;ratioP1;P1;durP2;ratioP2;P2;SDS_P1;SDS_P2;PMS_P1;PMS_P2;Temp;Humidity;BMP_temperature;BMP_pressure;BME280_temperature;BME280_humidity;BME280_pressure;Samples;Min_cycle;Max_cycle;Signal;HPM_P1;HPM_P2
2022/12/21 00:00:15;;;;;;;74.85;29.85;;;9.10;99.90;;;;;;5125999;27;20031;-63
2022/12/21 00:02:41;;;;;;;74.03;30.20;;;9.10;99.90;;;;;;5124319;27;20031;-62
2022/12/21 00:05:08;;;;;;;74.18;29.30;;;9.10;99.90;;;;;;5121068;27;20567;-62
2022/12/21 00:07:34;;;;;;;81.60;29.40;;;9.10;99.90;;;;;;5110951;27;21005;-62
2022/12/21 00:09:59;;;;;;;81.85;30.30;;;9.10;99.90;;;;;;5103505;27;20039;-63
2022/12/21 00:12:25;;;;;;;78.05;29.35;;;9.10;99.90;;;;;;5121096;27;20023;-62
2022/12/21 00:14:51;;;;;;;80.45;29.17;;;9.10;99.90;;;;;;5130783;27;20031;-61
2022/12/21 00:17:16;;;;;;;77.68;30.17;;;9.10;99.90;;;;;;5112661;27;20036;-61
2022/12/21 00:19:45;;;;;;;79.70;30.40;;;9.10;99.90;;;;;;5131375;27;20039;-62
2022/12/21 00:22:11;;;;;;;77.07;28.73;;;9.10;99.90;;;;;;5124985;27;20038;-62
2022/12/21 00:24:37;;;;;;;80.45;30.48;;;9.10;99.90;;;;;;5114615;27;20039;-61
2022/12/21 00:27:03;;;;;;;80.35;30.13;;;9.10;99.90;;;;;;5127967;27;20038;-61
2022/12/21 00:29:29;;;;;;;83.50;29.75;;;9.20;99.90;;;;;;5107679;27;20035;-61
2022/12/21 00:31:54;;;;;;;89.97;29.30;;;9.10;99.90;;;;;;5121342;27;20046;-62
2022/12/21 00:34:21;;;;;;;86.35;28.85;;;9.00;99.90;;;;;;5130990;27;20472;-62
2022/12/21 00:36:48;;;;;;;87.13;30.02;;;9.10;99.90;;;;;;5101230;28;20410;-62
2022/12/21 00:39:15;;;;;;;76.47;27.88;;;9.00;99.90;;;;;;5127793;27;20490;-61
2022/12/21 00:41:40;;;;;;;71.90;26.88;;;9.00;99.90;;;;;;5128761;27;20492;-62
2022/12/21 00:44:07;;;;;;;76.97;27.73;;;9.10;99.90;;;;;;5131696;27;20037;-62
2022/12/21 00:46:33;;;;;;;83.70;29.58;;;9.00;99.90;;;;;;5115876;27;20044;-62
2022/12/21 00:49:03;;;;;;;75.97;26.02;;;9.10;99.90;;;;;;5125289;27;20535;-62
2022/12/21 00:51:30;;;;;;;80.90;27.98;;;9.00;99.90;;;;;;5119811;27;20043;-60
2022/12/21 00:53:57;;;;;;;75.65;28.33;;;9.00;99.90;;;;;;5129688;27;20034;-62
2022/12/21 00:56:24;;;;;;;76.95;28.25;;;9.00;99.90;;;;;;5125114;27;20043;-62
2022/12/21 00:58:50;;;;;;;80.75;26.80;;;9.00;99.90;;;;;;5114138;27;20135;-61
2022/12/21 01:01:24;;;;;;;72.55;25.98;;;8.90;99.90;;;;;;5130829;27;20106;-62
2022/12/21 01:03:51;;;;;;;73.22;26.73;;;8.90;99.90;;;;;;5100846;27;20062;-61
2022/12/21 01:06:23;;;;;;;81.03;27.20;;;8.90;99.90;;;;;;5122334;27;20480;-62
2022/12/21 01:08:48;;;;;;;70.50;24.70;;;8.90;99.90;;;;;;5098238;28;20051;-61
2022/12/21 01:11:16;;;;;;;77.40;27.40;;;8.80;99.90;;;;;;5117384;27;20036;-61
2022/12/21 01:13:42;;;;;;;70.53;25.15;;;8.80;99.90;;;;;;5117199;27;20036;-62
2022/12/21 01:16:20;;;;;;;67.78;25.70;;;8.80;99.90;;;;;;5123149;27;20050;-62
2022/12/21 01:18:47;;;;;;;79.68;25.75;;;8.90;99.90;;;;;;5130011;27;20042;-60
2022/12/21 01:21:18;;;;;;;81.63;25.98;;;8.80;99.90;;;;;;5126716;27;20394;-61
2022/12/21 01:23:43;;;;;;;81.25;27.90;;;8.70;99.90;;;;;;5127042;27;20046;-62
2022/12/21 01:26:09;;;;;;;76.82;24.42;;;8.70;99.90;;;;;;5126866;27;20035;-61
2022/12/21 01:28:35;;;;;;;62.38;25.08;;;8.70;99.90;;;;;;5110730;28;20122;-61
2022/12/21 01:31:04;;;;;;;92.93;24.50;;;8.70;99.90;;;;;;5124031;27;20095;-61
2022/12/21 01:33:29;;;;;;;68.13;22.25;;;8.70;99.90;;;;;;5126901;28;20054;-61
2022/12/21 01:35:55;;;;;;;66.55;23.55;;;8.60;99.90;;;;;;5111266;28;20441;-61
2022/12/21 01:38:21;;;;;;;74.13;23.20;;;8.60;99.90;;;;;;5125169;28;20043;-61
2022/12/21 01:40:47;;;;;;;75.80;22.48;;;8.60;99.90;;;;;;5121284;27;20154;-60
2022/12/21 01:43:57;;;;;;;62.92;21.80;;;8.60;99.90;;;;;;5128538;27;20023;-62
2022/12/21 01:46:28;;;;;;;58.53;21.42;;;8.50;99.90;;;;;;5122476;28;20046;-61
2022/12/21 01:49:07;;;;;;;79.32;21.77;;;8.50;99.90;;;;;;5116086;28;20143;-62
2022/12/21 01:51:35;;;;;;;59.55;20.67;;;8.50;99.90;;;;;;5127386;28;20131;-61
2022/12/21 01:54:10;;;;;;;57.97;21.13;;;8.40;99.90;;;;;;5128637;28;20163;-62
2022/12/21 01:56:37;;;;;;;72.30;20.27;;;8.50;99.90;;;;;;5118696;28;20040;-61
2022/12/21 01:59:09;;;;;;;54.83;21.23;;;8.40;99.90;;;;;;5094695;28;20620;-62
2022/12/21 02:01:36;;;;;;;54.08;22.27;;;8.40;99.90;;;;;;5129757;28;20506;-61
2022/12/21 02:04:02;;;;;;;89.43;21.45;;;8.40;99.90;;;;;;5125621;27;20040;-61
2022/12/21 02:06:49;;;;;;;72.93;21.48;;;8.40;99.90;;;;;;5134248;27;20493;-62
2022/12/21 02:09:16;;;;;;;78.05;21.15;;;8.30;99.90;;;;;;5121038;27;20042;-62
2022/12/21 02:11:42;;;;;;;59.22;19.45;;;8.30;99.90;;;;;;5128338;27;20035;-62
2022/12/21 02:14:12;;;;;;;61.28;21.15;;;8.30;99.90;;;;;;5110185;28;20119;-61
2022/12/21 02:16:56;;;;;;;63.83;21.08;;;8.30;99.90;;;;;;5127356;27;20042;-62
2022/12/21 02:19:45;;;;;;;78.20;21.52;;;8.30;99.90;;;;;;5132375;27;20039;-62
2022/12/21 02:22:33;;;;;;;48.53;20.50;;;8.30;99.90;;;;;;5132507;27;20127;-62
2022/12/21 02:25:17;;;;;;;50.75;20.50;;;8.20;99.90;;;;;;5125215;27;20039;-62
2022/12/21 02:27:54;;;;;;;48.45;20.63;;;8.20;99.90;;;;;;5130902;27;20045;-61
2022/12/21 02:30:24;;;;;;;54.00;20.55;;;8.30;99.90;;;;;;5118977;27;20050;-61
2022/12/21 02:33:12;;;;;;;64.25;21.40;;;8.30;99.90;;;;;;5130239;27;20031;-61
2022/12/21 02:36:03;;;;;;;49.30;20.20;;;8.20;99.90;;;;;;5124604;27;20036;-61
2022/12/21 02:38:59;;;;;;;56.28;20.45;;;8.30;99.90;;;;;;5105782;28;20081;-60
2022/12/21 02:41:55;;;;;;;88.70;21.40;;;8.20;99.90;;;;;;5088776;27;20055;-61
2022/12/21 02:44:40;;;;;;;105.15;21.65;;;8.20;99.90;;;;;;5118292;27;20043;-61
2022/12/21 02:47:17;;;;;;;49.00;20.50;;;8.20;99.90;;;;;;5127522;27;20123;-61
2022/12/21 02:49:52;;;;;;;60.58;21.20;;;8.20;99.90;;;;;;5110219;27;20400;-61
2022/12/21 02:52:41;;;;;;;54.92;21.85;;;8.20;99.90;;;;;;5129247;27;20038;-61
2022/12/21 02:55:10;;;;;;;108.20;22.45;;;8.20;99.90;;;;;;5119960;27;20031;-61
2022/12/21 02:57:38;;;;;;;55.65;21.15;;;8.20;99.90;;;;;;5120502;27;20054;-61
2022/12/21 03:00:08;;;;;;;60.83;20.00;;;8.20;99.90;;;;;;5099910;28;20043;-61
2022/12/21 03:02:42;;;;;;;46.70;19.60;;;8.20;99.90;;;;;;5119560;27;20409;-61
2022/12/21 03:05:49;;;;;;;85.60;20.45;;;8.10;99.90;;;;;;5129607;27;20405;-61
2022/12/21 03:08:34;;;;;;;45.13;19.67;;;8.10;99.90;;;;;;5076627;27;20047;-61
2022/12/21 03:11:02;;;;;;;104.30;21.02;;;8.10;99.90;;;;;;5129137;27;20039;-60
2022/12/21 03:13:28;;;;;;;51.22;20.42;;;8.20;99.90;;;;;;5122463;27;20509;-61
2022/12/21 03:15:59;;;;;;;90.75;22.85;;;8.10;99.90;;;;;;5126440;27;20148;-62
2022/12/21 03:18:37;;;;;;;47.75;21.00;;;8.10;99.90;;;;;;5125338;27;20325;-62
2022/12/21 03:21:19;;;;;;;52.08;20.77;;;8.10;99.90;;;;;;5130852;27;20070;-62
2022/12/21 03:24:08;;;;;;;54.17;23.08;;;8.10;99.90;;;;;;5126417;27;20045;-61
2022/12/21 03:27:00;;;;;;;117.13;22.55;;;8.10;99.90;;;;;;5128413;27;20050;-61
2022/12/21 03:29:33;;;;;;;51.38;22.38;;;8.10;99.90;;;;;;5119038;27;20042;-60
2022/12/21 03:32:07;;;;;;;57.63;22.15;;;8.10;99.90;;;;;;5128759;27;20031;-61
2022/12/21 03:34:38;;;;;;;53.42;22.42;;;8.10;99.90;;;;;;5125559;27;20038;-61
2022/12/21 03:37:20;;;;;;;100.43;24.42;;;8.10;99.90;;;;;;5125465;27;20289;-61
2022/12/21 03:39:52;;;;;;;100.63;24.77;;;8.10;99.90;;;;;;5123069;27;20039;-61
2022/12/21 03:42:23;;;;;;;57.00;24.35;;;8.10;99.90;;;;;;5130155;27;20397;-62
2022/12/21 03:44:57;;;;;;;51.17;22.90;;;8.10;99.90;;;;;;5106478;27;20042;-61
2022/12/21 03:47:35;;;;;;;50.33;23.92;;;8.10;99.90;;;;;;5119134;27;20039;-62
2022/12/21 03:50:06;;;;;;;59.30;23.40;;;8.10;99.90;;;;;;5120955;27;20027;-62
2022/12/21 03:52:42;;;;;;;53.83;23.58;;;8.10;99.90;;;;;;5119621;27;20481;-62
2022/12/21 03:55:15;;;;;;;51.50;23.00;;;8.20;99.90;;;;;;5101593;28;20042;-62
2022/12/21 03:57:43;;;;;;;51.70;21.75;;;8.20;99.90;;;;;;5119086;27;20402;-62
2022/12/21 04:00:13;;;;;;;103.00;24.33;;;8.10;99.90;;;;;;5124179;27;20027;-61
2022/12/21 04:02:56;;;;;;;68.47;23.20;;;8.20;99.90;;;;;;5127929;27;20192;-62
2022/12/21 04:05:48;;;;;;;56.13;23.58;;;8.20;99.90;;;;;;5120686;27;20406;-62
2022/12/21 04:08:14;;;;;;;56.53;23.65;;;8.20;99.90;;;;;;5121860;27;20447;-62
2022/12/21 04:10:40;;;;;;;61.85;24.08;;;8.10;99.90;;;;;;5081993;28;20114;-61
2022/12/21 04:13:05;;;;;;;68.88;23.60;;;8.10;99.90;;;;;;5129956;27;20558;-61
2022/12/21 04:19:57;;;;;;;56.05;24.10;;;8.20;99.90;;;;;;5120856;27;20035;-62
2022/12/21 04:21:02;;;;;;;64.43;23.83;;;8.10;99.90;;;;;;5125919;27;20055;-60
2022/12/21 04:28:57;;;;;;;74.53;24.85;;;8.10;99.90;;;;;;5120935;27;20031;-62
2022/12/21 04:31:22;;;;;;;55.17;23.05;;;8.10;99.90;;;;;;5120091;27;20035;-61
2022/12/21 04:33:48;;;;;;;52.50;22.55;;;8.10;99.90;;;;;;5123216;27;20030;-61
2022/12/21 04:38:57;;;;;;;49.33;21.13;;;8.10;99.90;;;;;;5124563;27;20114;-61
2022/12/21 04:41:23;;;;;;;48.13;22.38;;;8.10;99.90;;;;;;5120895;27;20541;-62
2022/12/21 04:43:49;;;;;;;46.10;22.15;;;8.10;99.90;;;;;;5122394;27;20037;-61
2022/12/21 04:46:15;;;;;;;52.65;22.23;;;8.10;99.90;;;;;;5104378;27;20043;-62
2022/12/21 04:48:42;;;;;;;52.95;21.63;;;8.10;99.90;;;;;;5126634;27;20031;-61
2022/12/21 04:51:19;;;;;;;49.47;21.17;;;8.10;99.90;;;;;;5127847;27;20042;-61
2022/12/21 04:53:46;;;;;;;71.45;20.92;;;8.10;99.90;;;;;;5111105;27;20561;-61
2022/12/21 04:56:12;;;;;;;75.90;20.50;;;8.10;99.90;;;;;;5130920;27;20039;-61
2022/12/21 04:58:38;;;;;;;94.95;20.65;;;8.00;99.90;;;;;;5123232;27;20043;-62
2022/12/21 05:01:12;;;;;;;71.53;20.20;;;8.00;99.90;;;;;;5124451;27;20113;-62
2022/12/21 05:03:38;;;;;;;52.55;19.42;;;7.90;99.90;;;;;;5123724;27;20041;-62
2022/12/21 05:06:04;;;;;;;80.50;19.90;;;7.90;99.90;;;;;;5124258;27;20546;-61
2022/12/21 05:08:30;;;;;;;45.42;18.65;;;7.90;99.90;;;;;;5126184;27;20047;-62
2022/12/21 05:11:09;;;;;;;134.65;21.48;;;7.90;99.90;;;;;;5122113;27;20063;-62
2022/12/21 05:13:35;;;;;;;41.85;18.10;;;7.90;99.90;;;;;;5093484;27;20042;-62
2022/12/21 05:16:06;;;;;;;117.72;19.10;;;7.80;99.90;;;;;;5100432;27;20497;-60
2022/12/21 05:18:31;;;;;;;71.68;19.30;;;7.80;99.90;;;;;;5121853;27;20031;-63
2022/12/21 05:20:57;;;;;;;120.60;19.73;;;7.80;99.90;;;;;;5122605;27;20334;-62
2022/12/21 05:23:23;;;;;;;96.55;19.00;;;7.80;99.90;;;;;;5124896;27;20390;-63
2022/12/21 05:25:48;;;;;;;74.88;18.48;;;7.80;99.90;;;;;;5126452;27;20490;-62
2022/12/21 05:28:14;;;;;;;77.50;20.60;;;7.80;99.90;;;;;;5121182;27;20045;-63
2022/12/21 05:30:40;;;;;;;73.78;19.35;;;7.80;99.90;;;;;;5107536;28;20129;-62
2022/12/21 05:33:05;;;;;;;43.22;18.38;;;7.80;99.90;;;;;;5114730;28;20035;-61
2022/12/21 05:35:31;;;;;;;86.25;19.67;;;7.80;99.90;;;;;;5117993;28;20040;-62
2022/12/21 05:37:57;;;;;;;113.65;19.83;;;7.80;99.90;;;;;;5118640;28;20023;-62
2022/12/21 05:40:22;;;;;;;64.88;19.58;;;7.80;99.90;;;;;;5123779;28;20396;-62
2022/12/21 05:42:48;;;;;;;73.60;19.25;;;7.70;99.90;;;;;;5124911;28;20039;-61
2022/12/21 05:45:14;;;;;;;97.47;19.23;;;7.80;99.90;;;;;;5116377;28;20031;-62
2022/12/21 05:47:40;;;;;;;103.97;19.67;;;7.70;99.90;;;;;;5118884;28;20108;-62
2022/12/21 05:50:06;;;;;;;139.60;21.25;;;7.70;99.90;;;;;;5108240;28;20122;-61
2022/12/21 05:52:32;;;;;;;66.75;20.25;;;7.70;99.90;;;;;;5105531;28;20392;-61
2022/12/21 05:54:58;;;;;;;75.25;19.40;;;7.70;99.90;;;;;;5117705;28;20150;-61
2022/12/21 05:57:23;;;;;;;125.72;22.50;;;7.70;99.90;;;;;;5126501;28;20287;-62
2022/12/21 05:59:49;;;;;;;188.85;23.55;;;7.80;99.90;;;;;;5128522;28;20114;-62
2022/12/21 06:02:14;;;;;;;51.83;20.73;;;7.80;99.90;;;;;;5120351;28;20028;-61
2022/12/21 06:04:40;;;;;;;68.85;21.98;;;7.80;99.90;;;;;;5119564;28;20452;-62
2022/12/21 06:07:06;;;;;;;128.52;24.52;;;7.80;99.90;;;;;;5126060;28;20474;-62
2022/12/21 06:09:31;;;;;;;62.60;21.80;;;7.70;99.90;;;;;;5109587;28;20035;-62
2022/12/21 06:11:57;;;;;;;78.22;22.45;;;7.70;99.90;;;;;;5126734;28;20076;-61
2022/12/21 06:14:23;;;;;;;134.93;24.60;;;7.70;99.90;;;;;;5125741;28;20442;-61
2022/12/21 06:16:48;;;;;;;76.47;23.60;;;7.70;99.90;;;;;;5125420;28;20063;-62
2022/12/21 06:19:14;;;;;;;98.30;24.17;;;7.70;99.90;;;;;;5129293;28;20732;-61
2022/12/21 06:21:39;;;;;;;83.88;24.13;;;7.70;99.90;;;;;;5127033;28;20027;-63
2022/12/21 06:24:05;;;;;;;123.45;26.52;;;7.70;99.90;;;;;;5105319;28;20035;-61
2022/12/21 06:26:31;;;;;;;93.30;25.92;;;7.80;99.90;;;;;;5125005;28;20043;-60
2022/12/21 06:28:57;;;;;;;91.03;27.23;;;7.70;99.90;;;;;;5125260;28;20031;-61
2022/12/21 06:31:23;;;;;;;107.75;27.55;;;7.70;99.90;;;;;;5127613;28;20288;-61
2022/12/21 06:33:49;;;;;;;92.57;28.40;;;7.70;99.90;;;;;;5102740;28;20039;-60
2022/12/21 06:36:14;;;;;;;110.03;27.98;;;7.70;99.90;;;;;;5119428;28;20115;-60
2022/12/21 06:38:40;;;;;;;99.82;29.35;;;7.80;99.90;;;;;;5102249;28;20514;-61
2022/12/21 06:41:13;;;;;;;94.80;28.92;;;7.80;99.90;;;;;;5119887;28;20046;-60
2022/12/21 06:43:40;;;;;;;105.85;29.63;;;7.70;99.90;;;;;;5125140;28;20054;-60
2022/12/21 06:46:09;;;;;;;98.80;28.73;;;7.80;99.90;;;;;;5125319;28;20034;-61
2022/12/21 06:48:36;;;;;;;100.30;29.58;;;7.70;99.90;;;;;;5121446;27;20504;-61
2022/12/21 06:51:22;;;;;;;97.05;28.52;;;7.80;99.90;;;;;;5119031;27;20038;-61
2022/12/21 06:54:12;;;;;;;85.68;28.27;;;7.80;99.90;;;;;;5118378;27;20112;-61
2022/12/21 06:56:37;;;;;;;89.45;28.92;;;7.70;99.90;;;;;;5121629;27;20402;-60
2022/12/21 06:59:03;;;;;;;91.82;29.25;;;7.70;99.90;;;;;;5132450;27;20035;-60
2022/12/21 07:01:32;;;;;;;95.18;27.55;;;7.80;99.90;;;;;;5127040;27;20089;-60
2022/12/21 07:03:58;;;;;;;107.60;30.67;;;7.70;99.90;;;;;;5133254;27;20027;-60
2022/12/21 07:06:25;;;;;;;99.57;29.80;;;7.70;99.90;;;;;;5125148;27;20036;-60
2022/12/21 07:08:51;;;;;;;106.00;28.55;;;7.70;99.90;;;;;;5104546;27;20067;-61
2022/12/21 07:11:20;;;;;;;87.20;29.17;;;8.00;99.90;;;;;;5122862;27;20546;-60
2022/12/21 07:13:47;;;;;;;87.85;28.55;;;7.70;99.90;;;;;;5123255;27;20067;-60
2022/12/21 07:16:14;;;;;;;98.65;28.60;;;7.70;99.90;;;;;;5122260;27;20105;-62
2022/12/21 07:18:41;;;;;;;89.60;28.08;;;7.70;99.90;;;;;;5110876;27;20047;-61
2022/12/21 07:21:10;;;;;;;91.13;28.17;;;7.70;99.90;;;;;;5120036;27;20039;-61
2022/12/21 07:23:37;;;;;;;90.40;28.30;;;7.70;99.90;;;;;;5123273;27;20520;-61
2022/12/21 07:26:08;;;;;;;95.32;28.95;;;7.60;99.90;;;;;;5120608;27;20039;-61
2022/12/21 07:28:34;;;;;;;81.10;29.33;;;7.70;99.90;;;;;;5128856;27;20035;-59
2022/12/21 07:31:08;;;;;;;93.40;29.48;;;7.70;99.90;;;;;;5129725;27;20114;-61
2022/12/21 07:33:35;;;;;;;98.90;31.40;;;7.70;99.90;;;;;;5101813;27;20055;-61
2022/12/21 07:36:02;;;;;;;91.63;31.25;;;7.70;99.90;;;;;;5118581;27;20825;-63
2022/12/21 07:38:29;;;;;;;102.85;32.42;;;7.70;99.90;;;;;;5114057;27;20489;-61
2022/12/21 07:41:15;;;;;;;84.30;30.88;;;7.70;99.90;;;;;;5116674;27;20034;-62
2022/12/21 07:43:58;;;;;;;81.43;29.80;;;7.70;99.90;;;;;;5127051;27;20079;-61
2022/12/21 07:46:44;;;;;;;83.75;30.45;;;7.70;99.90;;;;;;5121645;27;20046;-62
2022/12/21 07:49:09;;;;;;;83.07;29.70;;;7.70;99.90;;;;;;5125251;27;20650;-62
2022/12/21 07:51:35;;;;;;;92.35;30.95;;;7.70;99.90;;;;;;5128531;27;20031;-61
2022/12/21 07:54:01;;;;;;;90.60;30.58;;;7.70;99.90;;;;;;5122029;27;20035;-61
2022/12/21 07:56:26;;;;;;;95.63;30.35;;;7.70;99.90;;;;;;5125822;27;20066;-61
2022/12/21 07:58:52;;;;;;;89.28;30.27;;;7.70;99.90;;;;;;5109501;27;20134;-64
2022/12/21 08:01:18;;;;;;;99.78;29.88;;;7.70;99.90;;;;;;5125940;27;20543;-61
2022/12/21 08:03:45;;;;;;;93.82;31.05;;;7.70;99.90;;;;;;5127972;27;20054;-61
2022/12/21 08:06:11;;;;;;;89.82;29.60;;;7.70;99.90;;;;;;5108379;27;20035;-61
2022/12/21 08:08:38;;;;;;;91.90;29.80;;;7.70;99.90;;;;;;5125677;27;20475;-61
2022/12/21 08:11:04;;;;;;;90.90;31.60;;;7.70;99.90;;;;;;5126146;27;20079;-62
2022/12/21 08:13:31;;;;;;;83.53;28.63;;;7.70;99.90;;;;;;5111907;27;20054;-61
2022/12/21 08:16:00;;;;;;;81.80;28.27;;;7.70;99.90;;;;;;5108115;27;20043;-61
2022/12/21 08:18:26;;;;;;;83.00;29.13;;;7.70;99.90;;;;;;5111364;27;20039;-62
2022/12/21 08:20:54;;;;;;;77.90;28.63;;;7.70;99.90;;;;;;5128885;27;20095;-63
2022/12/21 08:23:20;;;;;;;89.07;29.00;;;7.70;99.90;;;;;;5108436;27;20079;-61
2022/12/21 08:25:46;;;;;;;100.25;28.92;;;7.70;99.90;;;;;;5128951;27;20412;-64
2022/12/21 08:28:12;;;;;;;97.18;30.20;;;7.70;99.90;;;;;;5128464;27;20031;-61
2022/12/21 08:30:38;;;;;;;83.25;26.98;;;7.60;99.90;;;;;;5123019;27;20027;-61
2022/12/21 08:33:04;;;;;;;84.30;28.30;;;7.60;99.90;;;;;;5126685;27;20507;-59
2022/12/21 08:35:30;;;;;;;89.32;29.10;;;7.70;99.90;;;;;;5127592;27;20023;-61
2022/12/21 08:37:56;;;;;;;85.10;29.45;;;7.60;99.90;;;;;;5126043;27;20038;-61
2022/12/21 08:40:21;;;;;;;97.97;30.60;;;7.60;99.90;;;;;;5129460;27;20041;-61
2022/12/21 08:42:47;;;;;;;103.88;28.13;;;7.60;99.90;;;;;;5128822;27;20027;-61
2022/12/21 08:45:13;;;;;;;81.80;29.02;;;7.60;99.90;;;;;;5126888;27;20034;-64
2022/12/21 08:47:39;;;;;;;88.30;28.80;;;7.60;99.90;;;;;;5124175;27;20036;-60
2022/12/21 08:50:06;;;;;;;95.47;29.48;;;7.60;99.90;;;;;;5125308;27;20509;-63
2022/12/21 08:52:32;;;;;;;84.25;28.02;;;7.60;99.90;;;;;;5107561;27;20469;-61
2022/12/21 08:54:57;;;;;;;71.95;26.95;;;7.60;99.90;;;;;;5119537;27;20031;-61
2022/12/21 08:57:23;;;;;;;76.68;26.70;;;7.60;99.90;;;;;;5118086;27;20049;-63
2022/12/21 08:59:49;;;;;;;87.95;27.45;;;7.60;99.90;;;;;;5103708;27;20055;-61
2022/12/21 09:02:15;;;;;;;89.32;27.17;;;7.60;99.90;;;;;;5128139;27;20759;-60
2022/12/21 09:04:41;;;;;;;86.68;26.02;;;7.60;99.90;;;;;;5125812;27;20035;-62
2022/12/21 09:07:07;;;;;;;75.60;24.92;;;7.60;99.90;;;;;;5116922;27;20103;-60
2022/12/21 09:09:33;;;;;;;73.35;24.85;;;7.50;99.90;;;;;;5131050;27;20089;-62
2022/12/21 09:12:00;;;;;;;76.20;24.15;;;7.50;99.90;;;;;;5118336;27;20493;-61
2022/12/21 09:14:27;;;;;;;82.18;24.98;;;7.50;99.90;;;;;;5111664;27;20088;-62
2022/12/21 09:16:53;;;;;;;74.05;24.83;;;7.50;99.90;;;;;;5120941;27;20039;-61
2022/12/21 09:19:18;;;;;;;75.25;25.38;;;7.60;99.90;;;;;;5122308;27;20072;-61
2022/12/21 09:21:44;;;;;;;75.82;24.05;;;7.60;99.90;;;;;;5127041;27;20048;-62
2022/12/21 09:24:09;;;;;;;84.22;25.83;;;7.50;99.90;;;;;;5126186;27;20415;-60
2022/12/21 09:26:35;;;;;;;79.18;26.27;;;7.50;99.90;;;;;;5126799;27;20036;-60
2022/12/21 09:29:01;;;;;;;86.28;27.38;;;7.60;99.90;;;;;;5127658;27;20124;-59
2022/12/21 09:31:28;;;;;;;85.95;27.55;;;7.60;99.90;;;;;;5125910;27;20050;-61
2022/12/21 09:33:55;;;;;;;82.10;26.17;;;7.60;99.90;;;;;;5110219;27;20481;-61
2022/12/21 09:36:22;;;;;;;87.00;27.45;;;7.60;99.90;;;;;;5119150;28;20067;-61
2022/12/21 09:38:48;;;;;;;85.47;27.02;;;7.70;99.90;;;;;;5111850;28;20039;-61
2022/12/21 09:41:29;;;;;;;87.68;27.30;;;7.80;99.90;;;;;;5118600;28;20027;-61
2022/12/21 09:43:54;;;;;;;81.97;26.42;;;7.80;99.90;;;;;;5114003;28;20139;-64
2022/12/21 09:46:20;;;;;;;80.20;26.67;;;7.90;99.90;;;;;;5128657;28;20525;-61
2022/12/21 09:48:53;;;;;;;75.28;25.15;;;7.80;99.90;;;;;;5119684;28;20118;-60
2022/12/21 09:51:23;;;;;;;84.85;26.70;;;7.80;99.90;;;;;;5118172;28;20397;-61
2022/12/21 09:53:50;;;;;;;81.20;26.20;;;7.90;99.90;;;;;;5101433;28;20050;-63
2022/12/21 09:56:20;;;;;;;78.75;25.05;;;7.90;99.90;;;;;;5126610;28;20039;-61
2022/12/21 09:58:51;;;;;;;82.97;27.08;;;7.90;99.90;;;;;;5126359;28;20039;-61
2022/12/21 10:01:25;;;;;;;78.82;26.73;;;7.90;99.90;;;;;;5121911;28;20028;-63
2022/12/21 10:04:11;;;;;;;94.05;26.60;;;7.90;99.90;;;;;;5118872;28;20070;-61
2022/12/21 10:06:39;;;;;;;79.07;26.70;;;7.90;99.90;;;;;;5111084;28;20039;-61
2022/12/21 10:09:19;;;;;;;86.05;27.08;;;8.00;99.90;;;;;;5103607;28;20074;-63
2022/12/21 10:11:47;;;;;;;84.35;28.10;;;8.10;99.90;;;;;;5126496;28;20109;-61
2022/12/21 10:14:16;;;;;;;76.65;26.13;;;8.10;99.90;;;;;;5126049;28;20043;-61
2022/12/21 10:16:55;;;;;;;83.75;25.52;;;8.10;99.90;;;;;;5123228;28;20056;-61
2022/12/21 10:19:36;;;;;;;73.82;25.92;;;8.10;99.90;;;;;;5103769;28;20051;-61
2022/12/21 10:22:11;;;;;;;73.43;24.55;;;8.20;99.90;;;;;;5126548;28;20031;-61
2022/12/21 10:24:44;;;;;;;68.93;23.48;;;8.20;99.90;;;;;;5125650;27;20046;-61
2022/12/21 10:27:17;;;;;;;77.45;25.40;;;8.30;99.90;;;;;;5119713;27;20031;-61
2022/12/21 10:29:48;;;;;;;74.35;25.30;;;8.30;99.90;;;;;;5131720;27;20046;-62
2022/12/21 10:32:14;;;;;;;67.90;23.88;;;8.30;99.90;;;;;;5119959;27;20134;-60
2022/12/21 10:34:46;;;;;;;76.15;24.25;;;8.30;99.90;;;;;;5123054;27;20122;-59
2022/12/21 10:37:20;;;;;;;76.93;24.23;;;8.40;99.90;;;;;;5101829;27;20058;-63
2022/12/21 10:39:52;;;;;;;67.85;24.75;;;8.30;99.90;;;;;;5125349;27;20032;-60
2022/12/21 10:42:26;;;;;;;66.15;24.45;;;8.30;99.90;;;;;;5125140;27;20486;-61
2022/12/21 10:44:52;;;;;;;66.13;25.25;;;8.30;99.90;;;;;;5118391;27;20076;-60
2022/12/21 10:47:21;;;;;;;75.00;24.92;;;8.30;99.90;;;;;;5127055;27;20211;-60
2022/12/21 10:50:09;;;;;;;70.53;25.00;;;8.30;99.90;;;;;;5126504;27;20035;-64
2022/12/21 10:52:40;;;;;;;69.95;26.33;;;8.30;99.90;;;;;;5122660;27;20035;-62
2022/12/21 10:55:24;;;;;;;69.93;25.42;;;8.30;99.90;;;;;;5114035;27;20031;-62
2022/12/21 10:57:52;;;;;;;75.55;26.08;;;8.30;99.90;;;;;;5119074;27;20039;-61
2022/12/21 11:00:21;;;;;;;75.55;27.23;;;8.30;99.90;;;;;;5126350;27;20554;-61
2022/12/21 11:02:47;;;;;;;73.28;26.88;;;8.30;99.90;;;;;;5123005;27;20035;-61
2022/12/21 11:05:34;;;;;;;82.28;27.25;;;8.30;99.90;;;;;;5124610;27;20031;-60
2022/12/21 11:08:21;;;;;;;79.25;26.92;;;8.30;99.90;;;;;;5102513;27;20469;-61
2022/12/21 11:10:50;;;;;;;76.15;26.80;;;8.30;99.90;;;;;;5109826;27;20149;-62
2022/12/21 11:13:17;;;;;;;76.75;27.15;;;8.30;99.90;;;;;;5119164;27;20082;-61
2022/12/21 11:15:55;;;;;;;71.55;26.38;;;8.30;99.90;;;;;;5117601;27;20067;-61
2022/12/21 11:18:43;;;;;;;75.07;27.40;;;8.30;99.90;;;;;;5128804;27;20031;-61
2022/12/21 11:21:45;;;;;;;73.30;27.10;;;8.40;99.90;;;;;;5127193;27;20134;-61
2022/12/21 11:24:23;;;;;;;84.53;27.38;;;8.40;99.90;;;;;;5129614;27;20038;-63
2022/12/21 11:27:13;;;;;;;71.55;26.80;;;8.40;99.90;;;;;;5132625;27;20039;-61
2022/12/21 11:29:55;;;;;;;75.35;27.00;;;8.40;99.90;;;;;;5109971;27;20051;-61
2022/12/21 11:32:21;;;;;;;78.00;26.92;;;8.50;99.90;;;;;;5128679;27;20059;-61
2022/12/21 11:34:54;;;;;;;76.55;27.05;;;8.50;99.90;;;;;;5131709;27;20031;-61
2022/12/21 11:37:37;;;;;;;71.97;26.35;;;8.50;99.90;;;;;;5122840;27;20035;-61
2022/12/21 11:40:11;;;;;;;73.57;25.42;;;8.50;99.90;;;;;;5123607;27;20074;-61
2022/12/21 11:43:02;;;;;;;71.75;27.08;;;8.60;99.90;;;;;;5106092;27;20443;-61
2022/12/21 11:45:52;;;;;;;64.50;25.95;;;8.60;99.90;;;;;;5104590;27;20078;-61
2022/12/21 11:48:30;;;;;;;69.00;25.35;;;8.70;99.90;;;;;;5116958;27;20126;-61
2022/12/21 11:51:11;;;;;;;61.95;25.05;;;8.70;99.90;;;;;;5109030;27;20447;-61
2022/12/21 11:53:54;;;;;;;72.90;26.52;;;8.70;99.90;;;;;;5127204;27;20042;-64
2022/12/21 11:56:33;;;;;;;;;;;8.80;99.90;;;;;;5131919;27;20043;-60
2022/12/21 11:59:23;;;;;;;60.33;25.85;;;8.80;99.90;;;;;;5131833;27;20410;-61
2022/12/21 12:01:59;;;;;;;63.42;26.70;;;8.80;99.90;;;;;;5128230;27;20035;-60
2022/12/21 12:05:00;;;;;;;58.72;25.42;;;8.80;99.90;;;;;;5126176;27;20039;-60
2022/12/21 12:07:31;;;;;;;64.78;25.88;;;8.70;99.90;;;;;;5129323;27;20370;-61
2022/12/21 12:10:14;;;;;;;64.05;26.33;;;8.70;99.90;;;;;;5131271;27;20424;-61
2022/12/21 12:12:56;;;;;;;67.10;26.73;;;8.70;99.90;;;;;;5129452;27;20046;-61
2022/12/21 12:16:16;;;;;;;51.95;23.67;;;8.80;99.90;;;;;;5129402;27;20126;-61
2022/12/21 12:19:19;;;;;;;51.85;23.50;;;8.80;99.90;;;;;;5111355;27;20088;-60
2022/12/21 12:22:30;;;;;;;56.20;23.67;;;8.90;99.90;;;;;;5101902;28;20127;-62
2022/12/21 12:25:26;;;;;;;55.08;23.23;;;8.90;99.90;;;;;;5089521;27;20043;-61
2022/12/21 12:28:21;;;;;;;57.72;24.48;;;8.90;99.90;;;;;;5128300;27;20035;-62
2022/12/21 12:30:50;;;;;;;51.28;23.27;;;9.00;99.90;;;;;;5125652;27;20038;-62
2022/12/21 12:33:27;;;;;;;65.13;25.95;;;9.10;99.90;;;;;;5103481;27;20043;-61
2022/12/21 12:36:07;;;;;;;54.15;25.95;;;9.00;99.90;;;;;;5125294;27;20042;-62
2022/12/21 12:39:11;;;;;;;58.92;25.17;;;9.00;99.90;;;;;;5117528;27;20043;-62
2022/12/21 12:42:04;;;;;;;50.40;24.42;;;9.10;99.90;;;;;;5125823;27;20043;-62
2022/12/21 12:45:07;;;;;;;49.63;23.58;;;9.10;99.90;;;;;;5121643;27;20569;-62
2022/12/21 12:48:01;;;;;;;56.80;24.70;;;9.10;99.90;;;;;;5124030;27;20555;-62
2022/12/21 12:50:40;;;;;;;56.58;26.40;;;9.10;99.90;;;;;;5121914;27;20050;-62
2022/12/21 12:53:17;;;;;;;48.55;23.20;;;9.20;99.90;;;;;;5109158;27;20058;-62
2022/12/21 12:56:09;;;;;;;49.95;23.35;;;9.20;99.90;;;;;;5113161;27;20042;-61
2022/12/21 12:58:41;;;;;;;45.80;23.43;;;9.10;99.90;;;;;;5116912;27;20050;-62
2022/12/21 13:01:10;;;;;;;49.95;22.90;;;9.00;99.90;;;;;;5123627;27;20042;-62
2022/12/21 13:03:53;;;;;;;44.45;22.73;;;9.00;99.90;;;;;;5123117;27;20390;-62
2022/12/21 13:06:18;;;;;;;48.17;22.20;;;9.00;99.90;;;;;;5123683;27;20048;-62
2022/12/21 13:09:03;;;;;;;42.58;22.33;;;8.90;99.90;;;;;;5109901;27;20047;-60
2022/12/21 13:11:34;;;;;;;51.25;23.02;;;8.90;99.90;;;;;;5100683;27;20035;-61